Time;durP1;ratioP1;P1;durP2;ratioP2;P2;SDS_P1;SDS_P2;PMS_P1;PMS_P2;Temp;Humidity;BMP_temperature;BMP_pressure;BME280_temperature;BME280_humidity;BME280_pressure;Samples;Min_cycle;Max_cycle;Signal;HPM_P1;HPM_P2
2022/08/24 00:00:09;;;;;;;13.15;10.00;;;;;;;;;;5047955;28;20040;-74
2022/08/24 00:02:35;;;;;;;12.63;9.40;;;;;;;;;;5048388;28;20076;-75
2022/08/24 00:05:02;;;;;;;12.15;9.68;;;;;;;;;;5051452;28;20066;-75
2022/08/24 00:07:28;;;;;;;16.15;10.85;;;20.70;99.90;;;;;;5048224;28;20022;-74
2022/08/24 00:09:54;;;;;;;15.20;11.32;;;20.80;99.90;;;;;;5034373;28;20044;-75
2022/08/24 00:12:21;;;;;;;12.43;10.60;;;;;;;;;;5045335;28;20029;-74
2022/08/24 00:14:47;;;;;;;14.10;10.90;;;;;;;;;;5032111;28;20043;-73
2022/08/24 00:17:12;;;;;;;15.85;11.10;;;20.70;99.90;;;;;;5048342;28;20037;-74
2022/08/24 00:19:39;;;;;;;16.27;12.10;;;;;;;;;;5058435;28;20056;-74
2022/08/24 00:22:05;;;;;;;13.50;10.85;;;;;;;;;;5071532;28;20033;-74
2022/08/24 00:24:32;;;;;;;12.30;10.63;;;;;;;;;;5034114;28;20037;-73
2022/08/24 00:26:58;;;;;;;11.43;9.68;;;;;;;;;;5040407;28;20028;-73
2022/08/24 00:29:25;;;;;;;18.27;11.35;;;20.40;99.90;;;;;;5059331;28;20037;-74
2022/08/24 00:31:51;;;;;;;14.73;9.90;;;;;;;;;;5054803;28;20096;-74
2022/08/24 00:34:17;;;;;;;14.32;10.85;;;;;;;;;;5045722;28;20029;-73
2022/08/24 00:36:44;;;;;;;12.90;10.85;;;;;;;;;;5049554;28;20044;-73
2022/08/24 00:39:11;;;;;;;13.40;10.68;;;;;;;;;;5046027;28;20440;-73
2022/08/24 00:41:42;;;;;;;12.25;10.88;;;20.60;99.90;;;;;;5060313;28;20087;-73
2022/08/24 00:44:09;;;;;;;11.27;9.18;;;;;;;;;;5020471;28;20481;-74
2022/08/24 00:46:38;;;;;;;12.55;10.15;;;;;;;;;;5053154;28;20030;-73
2022/08/24 00:49:10;;;;;;;11.55;9.60;;;20.20;99.90;;;;;;5050986;28;20064;-74
2022/08/24 00:51:41;;;;;;;13.38;10.07;;;20.10;99.90;;;;;;5048921;28;20103;-74
2022/08/24 00:54:11;;;;;;;16.77;10.02;;;;;;;;;;5050583;28;20089;-74
2022/08/24 00:56:39;;;;;;;12.55;9.35;;;;;;;;;;5055862;28;20056;-74
2022/08/24 00:59:07;;;;;;;14.32;9.20;;;;;;;;;;5057536;28;20067;-74
2022/08/24 01:01:34;;;;;;;11.55;8.98;;;;;;;;;;5052112;28;20432;-74
2022/08/24 01:04:00;;;;;;;14.25;9.80;;;;;;;;;;5057451;28;20040;-74
2022/08/24 01:06:26;;;;;;;11.85;9.38;;;;;;;;;;5052407;28;20522;-74
2022/08/24 01:08:53;;;;;;;15.07;9.90;;;;;;;;;;5054882;28;20068;-75
2022/08/24 01:11:21;;;;;;;14.27;9.80;;;20.00;99.90;;;;;;5054957;28;20525;-73
2022/08/24 01:13:49;;;;;;;10.70;8.82;;;20.10;99.90;;;;;;5055265;28;20039;-74
2022/08/24 01:18:48;;;;;;;11.45;8.77;;;;;;;;;;5060131;28;20025;-73
2022/08/24 01:19:02;;;;;;;12.48;8.93;;;;;;;;;;5050174;28;20090;-73
2022/08/24 01:21:28;;;;;;;15.35;9.25;;;;;;;;;;5039923;28;20128;-73
2022/08/24 01:23:56;;;;;;;15.32;9.75;;;19.70;99.90;;;;;;5049172;28;20179;-73
2022/08/24 01:26:25;;;;;;;12.38;10.27;;;;;;;;;;5057434;28;20362;-73
2022/08/24 01:28:54;;;;;;;13.60;10.15;;;;;;;;;;5042032;28;20032;-74
2022/08/24 01:31:21;;;;;;;19.52;10.88;;;;;;;;;;5054960;28;20369;-74
2022/08/24 01:33:48;;;;;;;18.95;11.50;;;;;;;;;;5045945;28;20037;-74
2022/08/24 01:36:22;;;;;;;14.32;10.98;;;;;;;;;;5051292;28;20029;-74
2022/08/24 01:38:48;;;;;;;13.32;10.38;;;;;;;;;;5047880;28;20108;-74
2022/08/24 01:41:15;;;;;;;13.52;10.00;;;;;;;;;;5036999;28;20033;-74
2022/08/24 01:43:41;;;;;;;12.95;10.10;;;;;;;;;;5037859;28;20033;-74
2022/08/24 01:46:07;;;;;;;13.80;10.77;;;;;;;;;;5042618;28;20035;-74
2022/08/24 01:48:33;;;;;;;11.45;10.00;;;;;;;;;;5058563;28;20041;-73
2022/08/24 01:50:59;;;;;;;16.10;10.80;;;;;;;;;;5045349;28;20090;-74
2022/08/24 01:53:24;;;;;;;14.32;10.35;;;19.50;99.90;;;;;;5070474;28;20039;-74
2022/08/24 01:55:50;;;;;;;13.73;10.27;;;;;;;;;;5052148;28;20128;-74
2022/08/24 01:58:17;;;;;;;13.07;10.05;;;19.20;99.90;;;;;;5033370;28;20100;-73
2022/08/24 02:00:43;;;;;;;11.15;9.80;;;;;;;;;;5052484;28;20442;-74
2022/08/24 02:03:09;;;;;;;11.25;9.65;;;;;;;;;;5054767;28;20102;-74
2022/08/24 02:05:36;;;;;;;12.57;9.32;;;;;;;;;;5065152;28;20447;-75
2022/08/24 02:08:02;;;;;;;12.70;8.90;;;;;;;;;;5060361;28;20095;-74
2022/08/24 02:10:28;;;;;;;13.70;9.90;;;;;;;;;;5066615;28;20040;-74
2022/08/24 02:12:57;;;;;;;14.35;9.70;;;;;;;;;;5044379;28;20108;-74
2022/08/24 02:15:31;;;;;;;12.15;9.18;;;19.20;99.90;;;;;;5053087;28;20028;-74
2022/08/24 02:17:57;;;;;;;12.48;9.18;;;19.30;99.90;;;;;;5052370;28;20119;-74
2022/08/24 02:20:24;;;;;;;13.13;9.52;;;;;;;;;;5038472;28;20469;-74
2022/08/24 02:22:50;;;;;;;13.57;9.82;;;;;;;;;;5064228;28;20029;-74
2022/08/24 02:25:17;;;;;;;12.75;9.73;;;;;;;;;;5040034;28;20029;-73
2022/08/24 02:27:43;;;;;;;11.32;9.50;;;19.20;99.90;;;;;;5034973;28;20033;-73
2022/08/24 02:30:09;;;;;;;12.60;9.35;;;;;;;;;;5036008;28;20029;-74
2022/08/24 02:32:35;;;;;;;9.18;7.68;;;;;;;;;;5048427;28;20041;-74
2022/08/24 02:35:01;;;;;;;10.00;8.50;;;;;;;;;;5064576;28;20073;-74
2022/08/24 02:37:27;;;;;;;10.35;8.52;;;;;;;;;;5073191;28;20500;-73
2022/08/24 02:39:53;;;;;;;8.98;8.05;;;;;;;;;;5047579;28;20052;-74
2022/08/24 02:42:19;;;;;;;10.60;8.07;;;;;;;;;;5050565;28;20481;-73
2022/08/24 02:44:45;;;;;;;15.38;8.20;;;;;;;;;;5046745;28;20041;-73
2022/08/24 02:47:11;;;;;;;11.88;8.20;;;;;;;;;;5049047;28;20029;-73
2022/08/24 02:49:37;;;;;;;11.18;8.60;;;;;;;;;;5051137;28;20481;-74
2022/08/24 02:52:03;;;;;;;15.90;10.40;;;;;;;;;;5051870;28;20090;-75
2022/08/24 02:54:29;;;;;;;12.88;11.52;;;;;;;;;;5059444;28;20039;-74
2022/08/24 02:56:55;;;;;;;13.77;11.80;;;;;;;;;;5060345;28;20055;-74
2022/08/24 02:59:23;;;;;;;17.42;12.38;;;;;;;;;;5048316;28;20061;-75
2022/08/24 03:01:50;;;;;;;13.85;12.43;;;;;;;;;;5057838;28;20089;-74
2022/08/24 03:04:16;;;;;;;14.18;11.90;;;;;;;;;;5052198;28;20542;-74
2022/08/24 03:06:43;;;;;;;17.67;13.68;;;;;;;;;;5032835;28;20053;-74
2022/08/24 03:09:09;;;;;;;15.63;13.40;;;;;;;;;;5058731;28;20100;-74
2022/08/24 03:11:35;;;;;;;16.33;13.13;;;;;;;;;;5087311;28;20037;-73
2022/08/24 03:14:01;;;;;;;18.42;14.68;;;18.80;99.90;;;;;;5056395;28;20064;-74
2022/08/24 03:16:28;;;;;;;21.15;14.30;;;18.70;99.90;;;;;;5047459;28;20040;-74
2022/08/24 03:18:54;;;;;;;20.05;15.32;;;;;;;;;;5046687;28;20055;-74
2022/08/24 03:21:20;;;;;;;22.92;16.98;;;;;;;;;;5048719;28;20067;-74
2022/08/24 03:23:46;;;;;;;23.70;18.50;;;;;;;;;;5033079;28;20037;-73
2022/08/24 03:26:13;;;;;;;22.30;16.00;;;;;;;;;;5051784;28;20413;-74
2022/08/24 03:28:39;;;;;;;17.88;15.90;;;;;;;;;;5051456;28;20090;-74
2022/08/24 03:31:05;;;;;;;21.73;17.20;;;;;;;;;;5037721;28;20142;-74
2022/08/24 03:33:31;;;;;;;23.33;16.23;;;;;;;;;;5051559;28;20386;-74
2022/08/24 03:35:58;;;;;;;21.65;16.02;;;;;;;;;;5046536;28;20037;-74
2022/08/24 03:38:24;;;;;;;18.73;14.02;;;;;;;;;;5059776;28;20029;-74
2022/08/24 03:40:50;;;;;;;21.30;14.80;;;;;;;;;;5043126;28;20070;-74
2022/08/24 03:46:04;;;;;;;22.75;16.15;;;;;;;;;;5049908;28;20171;-74
2022/08/24 03:48:30;;;;;;;20.20;16.10;;;;;;;;;;5067321;28;20409;-74
2022/08/24 03:50:56;;;;;;;20.13;15.57;;;;;;;;;;5051272;28;20036;-74
2022/08/24 03:53:22;;;;;;;17.38;14.15;;;;;;;;;;5048953;28;20234;-74
2022/08/24 03:55:48;;;;;;;17.55;15.80;;;;;;;;;;5045035;28;20032;-74
2022/08/24 03:58:14;;;;;;;18.38;14.00;;;;;;;;;;5032554;28;20041;-74
2022/08/24 04:00:41;;;;;;;20.65;15.35;;;;;;;;;;5037931;28;20453;-78
2022/08/24 04:03:11;;;;;;;18.02;16.10;;;;;;;;;;5049428;28;20041;-76
2022/08/24 04:05:38;;;;;;;18.00;16.10;;;;;;;;;;5022634;28;20029;-76
2022/08/24 04:08:04;;;;;;;21.90;16.95;;;;;;;;;;5045849;28;20100;-76
2022/08/24 04:10:33;;;;;;;19.58;16.67;;;;;;;;;;5055126;28;20536;-76
2022/08/24 04:13:00;;;;;;;22.10;15.90;;;;;;;;;;5034209;28;20487;-75
2022/08/24 04:15:26;;;;;;;16.33;14.23;;;;;;;;;;5041089;28;20087;-73
2022/08/24 04:17:52;;;;;;;19.45;16.42;;;;;;;;;;5043138;28;20021;-73
2022/08/24 04:20:18;;;;;;;19.40;15.52;;;;;;;;;;5048541;28;20056;-73
2022/08/24 04:22:44;;;;;;;19.38;15.40;;;;;;;;;;5045506;28;20030;-75
2022/08/24 04:25:11;;;;;;;18.67;16.42;;;;;;;;;;5045052;28;20048;-78
2022/08/24 04:27:38;;;;;;;18.80;15.55;;;;;;;;;;5034031;28;20033;-77
2022/08/24 04:30:05;;;;;;;17.80;15.60;;;;;;;;;;5045171;28;20025;-77
2022/08/24 04:32:31;;;;;;;22.02;17.38;;;;;;;;;;5028460;28;20033;-77
2022/08/24 04:34:58;;;;;;;20.35;15.45;;;;;;;;;;5049115;28;20037;-78
2022/08/24 04:37:24;;;;;;;18.38;15.75;;;18.20;99.90;;;;;;5058355;28;20024;-83
2022/08/24 04:39:51;;;;;;;20.38;15.77;;;;;;;;;;5036839;28;20126;-80
2022/08/24 04:42:18;;;;;;;17.67;15.85;;;18.40;99.90;;;;;;5040959;28;20037;-78
2022/08/24 04:44:45;;;;;;;16.65;14.77;;;;;;;;;;5048498;28;20029;-77
2022/08/24 04:47:11;;;;;;;21.20;16.05;;;;;;;;;;5025958;28;20063;-77
2022/08/24 04:49:38;;;;;;;18.20;15.57;;;18.30;99.90;;;;;;5043016;28;20040;-76
2022/08/24 04:52:06;;;;;;;18.63;15.95;;;;;;;;;;5053415;28;20028;-77
2022/08/24 04:54:33;;;;;;;19.75;16.65;;;;;;;;;;5031235;28;20044;-75
2022/08/24 04:56:59;;;;;;;18.35;16.45;;;;;;;;;;5049170;28;20550;-75
2022/08/24 04:59:25;;;;;;;20.85;17.60;;;;;;;;;;5048835;28;20041;-75
2022/08/24 05:01:51;;;;;;;20.08;17.85;;;;;;;;;;5062532;28;20041;-75
2022/08/24 05:04:17;;;;;;;18.77;16.17;;;;;;;;;;5047031;28;20057;-75
2022/08/24 05:06:43;;;;;;;20.65;16.80;;;;;;;;;;5041588;28;20072;-74
2022/08/24 05:09:09;;;;;;;18.52;16.15;;;18.10;99.90;;;;;;5042404;28;20085;-75
2022/08/24 05:11:39;;;;;;;20.95;16.90;;;;;;;;;;5046801;28;20112;-75
2022/08/24 05:14:06;;;;;;;18.30;16.17;;;;;;;;;;5054313;28;20041;-75
2022/08/24 05:16:33;;;;;;;21.10;17.85;;;;;;;;;;5058405;28;20374;-75
2022/08/24 05:19:01;;;;;;;22.17;18.27;;;;;;;;;;5064589;28;20082;-74
2022/08/24 05:21:29;;;;;;;21.60;18.00;;;18.20;99.90;;;;;;5032531;28;20053;-74
2022/08/24 05:23:55;;;;;;;21.95;19.75;;;;;;;;;;5041038;28;20073;-75
2022/08/24 05:26:24;;;;;;;23.65;19.50;;;;;;;;;;5045364;28;20037;-76
2022/08/24 05:28:54;;;;;;;27.67;21.08;;;18.30;99.90;;;;;;5047459;28;20063;-76
2022/08/24 05:31:22;;;;;;;21.90;19.13;;;;;;;;;;5047026;28;20037;-75
2022/08/24 05:36:25;;;;;;;22.33;19.13;;;;;;;;;;5195963;23;20057;-76
2022/08/24 05:38:54;;;;;;;27.70;20.35;;;18.40;99.90;;;;;;5002746;28;20049;-77
2022/08/24 05:41:20;;;;;;;27.85;21.10;;;;;;;;;;5027153;28;20029;-75
2022/08/24 05:43:46;;;;;;;29.90;20.50;;;;;;;;;;5012853;28;20037;-72
2022/08/24 05:46:13;;;;;;;25.10;21.60;;;18.70;99.90;;;;;;5030435;28;20102;-73
2022/08/24 05:48:39;;;;;;;21.63;18.95;;;19.00;99.90;;;;;;5032695;28;20041;-74
2022/08/24 05:51:06;;;;;;;26.92;22.42;;;18.80;99.90;;;;;;5024372;28;20362;-76
2022/08/24 05:53:32;;;;;;;22.50;19.92;;;;;;;;;;5031944;28;20033;-73
2022/08/24 05:56:02;;;;;;;31.02;23.08;;;;;;;;;;5029520;28;20175;-73
2022/08/24 05:58:28;;;;;;;26.08;20.40;;;;;;;;;;5027117;28;20029;-74
2022/08/24 06:00:54;;;;;;;27.80;19.95;;;;;;;;;;5035743;28;20096;-76
2022/08/24 06:03:20;;;;;;;30.23;24.70;;;;;;;;;;5027261;28;20121;-77
2022/08/24 06:05:47;;;;;;;33.13;25.65;;;;;;;;;;5031287;28;20037;-73
2022/08/24 06:08:13;;;;;;;28.95;23.90;;;;;;;;;;5015203;28;20084;-73
2022/08/24 06:10:43;;;;;;;28.70;24.20;;;;;;;;;;5020657;28;20033;-73
2022/08/24 06:13:10;;;;;;;30.35;24.92;;;;;;;;;;5030567;28;20029;-72
2022/08/24 06:15:37;;;;;;;29.25;23.08;;;;;;;;;;5032501;28;20027;-72
2022/08/24 06:18:04;;;;;;;32.53;23.30;;;19.50;99.90;;;;;;5026404;28;20109;-73
2022/08/24 06:20:30;;;;;;;32.42;22.75;;;19.50;99.90;;;;;;5025479;28;20044;-74
2022/08/24 06:22:57;;;;;;;28.98;21.45;;;;;;;;;;5032162;28;20064;-75
2022/08/24 06:28:07;;;;;;;25.92;21.13;;;;;;;;;;5018226;28;20091;-72
2022/08/24 06:30:33;;;;;;;26.65;21.13;;;;;;;;;;5023980;28;20033;-73
2022/08/24 06:33:00;;;;;;;25.55;19.65;;;;;;;;;;5025937;28;20070;-73
2022/08/24 06:35:26;;;;;;;29.05;17.40;;;;;;;;;;5023932;28;20072;-72
2022/08/24 06:37:52;;;;;;;27.98;20.02;;;;;;;;;;5021207;28;20037;-78
2022/08/24 06:40:19;;;;;;;21.08;17.83;;;20.00;99.90;;;;;;5019119;28;20029;-74
2022/08/24 06:42:45;;;;;;;104.82;83.93;;;;;;;;;;5009005;28;20041;-73
2022/08/24 06:45:12;;;;;;;25.13;18.60;;;20.30;99.90;;;;;;5004812;28;20473;-73
2022/08/24 06:47:38;;;;;;;30.35;23.65;;;;;;;;;;5014418;28;20029;-74
2022/08/24 06:50:05;;;;;;;30.33;17.08;;;;;;;;;;5033605;28;20034;-74
2022/08/24 06:52:31;;;;;;;21.95;16.75;;;;;;;;;;5011242;28;20060;-79
2022/08/24 06:54:57;;;;;;;27.52;16.23;;;;;;;;;;5019105;28;20061;-77
2022/08/24 06:57:24;;;;;;;37.50;22.13;;;;;;;;;;5014043;28;20515;-80
2022/08/24 06:59:50;;;;;;;21.00;15.75;;;;;;;;;;5025672;28;20579;-78
2022/08/24 07:02:18;;;;;;;21.30;16.00;;;;;;;;;;5023830;28;20032;-73
2022/08/24 07:04:44;;;;;;;22.92;16.15;;;;;;;;;;5001727;28;20293;-73
2022/08/24 07:07:10;;;;;;;18.67;13.75;;;;;;;;;;4998872;28;20491;-77
2022/08/24 07:09:36;;;;;;;20.35;15.68;;;;;;;;;;5014070;28;20048;-73
2022/08/24 07:12:02;;;;;;;21.95;14.55;;;;;;;;;;5029958;28;20041;-73
2022/08/24 07:14:29;;;;;;;20.98;14.68;;;;;;;;;;5014985;28;20033;-73
2022/08/24 07:16:55;;;;;;;20.63;15.05;;;;;;;;;;5032630;28;20112;-73
2022/08/24 07:19:21;;;;;;;17.77;13.90;;;;;;;;;;5020653;28;20044;-73
2022/08/24 07:21:48;;;;;;;22.33;15.88;;;;;;;;;;5013506;28;20045;-73
2022/08/24 07:24:14;;;;;;;25.02;14.63;;;;;;;;;;5032444;28;20168;-73
2022/08/24 07:26:40;;;;;;;19.75;14.60;;;;;;;;;;5025500;28;20064;-75
2022/08/24 07:29:09;;;;;;;18.08;14.50;;;;;;;;;;5029720;28;20040;-73
2022/08/24 07:31:37;;;;;;;22.38;15.25;;;;;;;;;;5007814;28;20464;-73
2022/08/24 07:34:05;;;;;;;26.58;15.55;;;;;;;;;;5014325;28;20559;-73
2022/08/24 07:36:31;;;;;;;20.75;14.48;;;;;;;;;;5000685;28;20100;-73
2022/08/24 07:38:57;;;;;;;16.95;14.20;;;;;;;;;;5008039;28;20053;-74
2022/08/24 07:41:27;;;;;;;22.48;14.07;;;;;;;;;;5001109;28;20034;-73
2022/08/24 07:43:55;;;;;;;19.55;13.88;;;;;;;;;;5012234;28;20033;-73
2022/08/24 07:46:21;;;;;;;21.83;12.63;;;;;;;;;;4986195;28;20076;-73
2022/08/24 07:48:47;;;;;;;17.27;11.75;;;;;;;;;;4998555;28;20030;-73
2022/08/24 07:51:14;;;;;;;17.13;11.25;;;;;;;;;;4989054;28;20033;-73
2022/08/24 07:53:40;;;;;;;16.63;10.93;;;;;;;;;;5018814;28;20038;-73
2022/08/24 07:56:07;;;;;;;15.57;9.80;;;;;;;;;;5008968;28;20034;-74
2022/08/24 07:58:33;;;;;;;13.20;10.05;;;;;;;;;;5010724;28;20093;-74
2022/08/24 08:00:59;;;;;;;14.73;10.15;;;;;;;;;;5011901;28;20037;-74
2022/08/24 08:03:26;;;;;;;13.88;9.63;;;;;;;;;;5015877;28;20042;-73
2022/08/24 08:05:59;;;;;;;12.85;8.15;;;;;;;;;;5010379;28;20030;-74
2022/08/24 08:08:25;;;;;;;15.93;8.98;;;;;;;;;;5000841;28;20080;-74
2022/08/24 08:10:51;;;;;;;10.35;7.82;;;;;;;;;;5001938;28;20455;-71
2022/08/24 08:13:18;;;;;;;12.93;8.00;;;;;;;;;;5009111;28;20605;-71
2022/08/24 08:15:44;;;;;;;15.20;8.80;;;;;;;;;;5021491;28;20086;-72
2022/08/24 08:18:10;;;;;;;13.88;7.80;;;;;;;;;;5011748;28;20029;-71
2022/08/24 08:20:37;;;;;;;12.10;6.78;;;;;;;;;;5010974;28;20477;-71
2022/08/24 08:25:50;;;;;;;8.32;5.88;;;;;;;;;;4997996;28;20044;-73
2022/08/24 08:28:16;;;;;;;9.80;5.85;;;;;;;;;;4997062;28;20482;-74
2022/08/24 08:30:42;;;;;;;10.25;6.75;;;;;;;;;;4993153;28;20084;-73
2022/08/24 08:33:08;;;;;;;9.25;7.22;;;;;;;;;;4992315;28;20030;-74
2022/08/24 08:35:36;;;;;;;7.70;4.95;;;;;;;;;;5001039;28;20484;-73
2022/08/24 08:38:02;;;;;;;8.00;4.78;;;;;;;;;;5022253;28;20032;-74
2022/08/24 08:40:39;;;;;;;14.20;5.35;;;;;;;;;;5019974;28;20030;-74
2022/08/24 08:43:09;;;;;;;9.05;4.60;;;;;;;;;;5030294;28;20041;-73
2022/08/24 08:45:41;;;;;;;7.07;6.20;;;;;;;;;;4995293;28;20661;-73
2022/08/24 08:48:26;;;;;;;11.18;6.78;;;;;;;;;;5024489;28;20421;-76
2022/08/24 08:51:01;;;;;;;10.77;5.93;;;;;;;;;;5010265;28;20037;-73
2022/08/24 08:53:36;;;;;;;10.02;5.70;;;;;;;;;;5029937;28;20057;-73
2022/08/24 08:56:02;;;;;;;8.80;5.53;;;;;;;;;;5029045;28;20889;-74
2022/08/24 08:58:47;;;;;;;7.93;5.63;;;;;;;;;;5010156;28;20030;-73
2022/08/24 09:01:27;;;;;;;7.78;6.20;;;;;;;;;;5020235;28;20026;-74
2022/08/24 09:04:06;;;;;;;9.45;6.25;;;;;;;;;;5034319;28;20076;-74
2022/08/24 09:06:35;;;;;;;9.00;5.90;;;;;;;;;;5041487;28;20092;-74
2022/08/24 09:09:07;;;;;;;9.02;5.40;;;;;;;;;;5024541;28;20040;-77
2022/08/24 09:11:41;;;;;;;7.70;5.50;;;;;;;;;;5026330;28;20029;-73
2022/08/24 09:14:28;;;;;;;7.05;5.07;;;;;;;;;;5026803;28;20087;-74
2022/08/24 09:17:04;;;;;;;5.80;4.53;;;;;;;;;;5024025;28;20017;-74
2022/08/24 09:19:56;;;;;;;11.40;4.60;;;;;;;;;;5028899;28;20025;-74
2022/08/24 09:22:22;;;;;;;8.20;4.03;;;;;;;;;;5003273;28;20103;-74
2022/08/24 09:24:54;;;;;;;11.65;4.03;;;;;;;;;;5035237;28;20026;-72
2022/08/24 09:27:20;;;;;;;7.55;3.20;;;;;;;;;;5027753;28;20420;-75
2022/08/24 09:29:52;;;;;;;5.90;3.70;;;;;;;;;;5028340;28;20110;-72
2022/08/24 09:32:27;;;;;;;7.28;3.75;;;;;;;;;;5028277;28;20029;-73
2022/08/24 09:34:59;;;;;;;6.60;3.05;;;;;;;;;;5032248;28;20415;-73
2022/08/24 09:37:37;;;;;;;4.50;2.28;;;;;;;;;;5034116;28;20033;-75
2022/08/24 09:40:22;;;;;;;5.00;2.72;;;;;;;;;;5033537;28;20381;-73
2022/08/24 09:43:07;;;;;;;7.90;2.88;;;;;;;;;;5038724;28;20040;-74
2022/08/24 09:45:52;;;;;;;4.63;2.50;;;;;;;;;;5035592;28;20052;-73
2022/08/24 09:48:19;;;;;;;5.78;2.58;;;;;;;;;;5027662;28;20036;-72
2022/08/24 09:50:51;;;;;;;4.22;1.60;;;;;;;;;;5031941;28;20036;-73
2022/08/24 09:53:17;;;;;;;8.50;2.10;;;;;;;;;;5026301;28;20046;-73
2022/08/24 09:55:43;;;;;;;4.97;2.42;;;;;;;;;;5023606;28;20022;-72
2022/08/24 09:58:09;;;;;;;3.53;2.20;;;;;;;;;;5007444;28;20066;-73
2022/08/24 10:00:44;;;;;;;5.78;3.38;;;;;;;;;;5033738;28;20039;-73
2022/08/24 10:03:22;;;;;;;3.65;1.95;;;;;;;;;;5032719;28;20428;-74
2022/08/24 10:05:48;;;;;;;8.30;2.20;;;;;;;;;;5041533;28;20100;-73
2022/08/24 10:08:33;;;;;;;4.32;2.10;;;;;;;;;;5024163;28;20057;-73
2022/08/24 10:11:18;;;;;;;3.33;1.48;;;;;;;;;;5023122;28;20423;-75
2022/08/24 10:14:02;;;;;;;6.82;1.83;;;;;;;;;;5028384;28;20029;-73
2022/08/24 10:16:29;;;;;;;5.70;1.58;;;;;;;;;;5022376;28;20061;-76
2022/08/24 10:19:09;;;;;;;3.85;1.00;;;;;;;;;;5032365;28;20113;-73
2022/08/24 10:21:38;;;;;;;2.60;1.77;;;;;;;;;;5016530;28;20045;-73
2022/08/24 10:24:04;;;;;;;10.40;2.47;;;;;;;;;;5042306;28;20193;-73
2022/08/24 10:26:30;;;;;;;4.15;1.70;;;;;;;;;;5029866;28;20029;-72
2022/08/24 10:29:05;;;;;;;4.25;1.40;;;;;;;;;;5032895;28;20391;-73
2022/08/24 10:31:38;;;;;;;4.20;2.35;;;;;;;;;;5033470;28;20104;-73
2022/08/24 10:34:26;;;;;;;3.88;1.70;;;;;;;;;;5032894;28;20051;-73
2022/08/24 10:36:55;;;;;;;3.33;1.27;;;;;;;;;;5032480;28;20108;-74
2022/08/24 10:39:44;;;;;;;3.95;1.30;;;;;;;;;;5043386;28;20037;-75
2022/08/24 10:45:30;;;;;;;2.95;1.40;;;;;;;;;;5033059;28;20020;-73
2022/08/24 10:48:14;;;;;;;3.47;1.38;;;;;;;;;;5032537;28;20377;-73
2022/08/24 10:50:50;;;;;;;6.22;1.80;;;;;;;;;;5043526;28;20033;-73
2022/08/24 10:53:16;;;;;;;3.08;1.40;;;;;;;;;;5032210;28;20469;-73
2022/08/24 10:55:43;;;;;;;4.97;1.60;;;;;;;;;;5029861;28;20057;-73
2022/08/24 10:58:28;;;;;;;6.03;1.80;;;;;;;;;;5032484;28;20034;-73
2022/08/24 11:00:54;;;;;;;2.33;1.58;;;;;;;;;;5032036;28;20032;-74
2022/08/24 11:03:25;;;;;;;3.33;1.35;;;;;;;;;;5031519;28;20032;-73
2022/08/24 11:05:53;;;;;;;4.40;1.67;;;;;;;;;;5026556;28;20496;-74
2022/08/24 11:08:22;;;;;;;3.00;1.63;;;;;;;;;;5026629;28;20026;-73
2022/08/24 11:11:06;;;;;;;3.83;1.50;;;;;;;;;;5027911;28;20423;-73
2022/08/24 11:13:33;;;;;;;1.85;0.93;;;;;;;;;;5009265;28;20083;-76
2022/08/24 11:16:00;;;;;;;3.53;1.27;;;;;;;;;;5012590;28;20037;-74
2022/08/24 11:18:45;;;;;;;3.97;1.10;;;;;;;;;;5026403;28;20032;-73
2022/08/24 11:21:18;;;;;;;3.28;1.10;;;;;;;;;;5034666;28;20017;-73
2022/08/24 11:23:45;;;;;;;3.17;1.38;;;;;;;;;;5036210;28;20476;-73
2022/08/24 11:26:21;;;;;;;1.35;0.90;;;;;;;;;;5032806;28;20519;-73
2022/08/24 11:28:53;;;;;;;2.65;1.10;;;;;;;;;;5027011;28;20030;-73
2022/08/24 11:31:27;;;;;;;4.07;1.30;;;;;;;;;;5031108;28;20029;-73
2022/08/24 11:33:58;;;;;;;2.35;1.30;;;;;;;;;;5017804;28;20359;-74
2022/08/24 11:36:26;;;;;;;6.43;1.15;;;;;;;;;;5013594;28;20053;-74
2022/08/24 11:39:12;;;;;;;6.13;1.10;;;;;;;;;;5018923;28;20062;-77
2022/08/24 11:41:49;;;;;;;2.92;1.27;;;;;;;;;;5014195;28;20105;-73
2022/08/24 11:44:31;;;;;;;5.90;1.10;;;;;;;;;;5035652;28;20099;-73
2022/08/24 11:47:03;;;;;;;1.85;1.10;;;;;;;;;;5030005;28;20084;-76
2022/08/24 11:49:44;;;;;;;2.85;1.23;;;;;;;;;;5003326;28;20037;-73
2022/08/24 11:52:14;;;;;;;5.78;1.27;;;;;;;;;;5031739;28;20067;-75
2022/08/24 11:54:47;;;;;;;3.00;1.65;;;;;;;;;;5030298;28;20384;-73
2022/08/24 11:57:39;;;;;;;7.82;1.50;;;;;;;;;;5024432;28;20108;-73
2022/08/24 12:00:15;;;;;;;3.55;1.60;;;;;;;;;;5007989;28;20544;-73
2022/08/24 12:02:59;;;;;;;4.00;1.48;;;;;;;;;;5030339;28;20053;-76
2022/08/24 12:05:43;;;;;;;3.42;2.08;;;;;;;;;;5035027;28;20037;-73
2022/08/24 12:08:19;;;;;;;1.58;1.00;;;;;;;;;;5031339;28;20025;-74
2022/08/24 12:10:48;;;;;;;3.58;1.27;;;;;;;;;;5026227;28;20025;-73
2022/08/24 12:13:28;;;;;;;4.55;1.95;;;;;;;;;;5027817;28;20041;-73
2022/08/24 12:15:59;;;;;;;3.30;1.45;;;;;;;;;;5030496;28;20032;-74
2022/08/24 12:18:33;;;;;;;1.55;1.00;;;;;;;;;;5014309;28;20033;-73
2022/08/24 12:20:59;;;;;;;3.30;1.10;;;;;;;;;;5014101;28;20464;-73
2022/08/24 12:23:36;;;;;;;2.08;1.17;;;;;;;;;;5030981;28;20030;-73
2022/08/24 12:26:06;;;;;;;6.32;0.88;;;;;;;;;;5026633;28;20080;-73
2022/08/24 12:28:37;;;;;;;2.75;1.10;;;;;;;;;;5026774;28;20025;-73
2022/08/24 12:31:23;;;;;;;7.28;1.23;;;;;;;;;;5029875;28;20052;-73
2022/08/24 12:33:52;;;;;;;3.72;1.08;;;;;;;;;;5016133;28;20536;-73
2022/08/24 12:36:30;;;;;;;3.10;1.00;;;;;;;;;;5020975;28;20443;-73
2022/08/24 12:39:10;;;;;;;2.65;0.88;;;;;;;;;;5032978;28;20106;-73
2022/08/24 12:41:41;;;;;;;5.15;0.88;;;;;;;;;;5051141;28;20025;-72
2022/08/24 12:44:11;;;;;;;1.65;0.65;;;;;;;;;;5043907;28;20067;-73
2022/08/24 12:46:38;;;;;;;1.73;0.60;;;;;;;;;;5033367;28;20036;-73
2022/08/24 12:49:07;;;;;;;2.45;0.60;;;;;;;;;;5029136;28;20469;-73
2022/08/24 12:52:00;;;;;;;3.05;0.65;;;;;;;;;;5011914;28;20022;-72
2022/08/24 12:54:45;;;;;;;3.35;0.70;;;;;;;;;;5027208;28;20489;-73
2022/08/24 12:57:11;;;;;;;1.58;0.50;;;;;;;;;;5032978;28;20044;-74
2022/08/24 12:59:37;;;;;;;2.38;0.50;;;;;;;;;;5029917;28;20030;-73
2022/08/24 13:02:05;;;;;;;2.20;0.50;;;;;;;;;;5026131;28;20418;-73
2022/08/24 13:04:34;;;;;;;2.72;0.68;;;;;;;;;;5033657;28;20041;-76
2022/08/24 13:07:01;;;;;;;4.03;0.70;;;;;;;;;;5014052;28;20038;-73
2022/08/24 13:09:36;;;;;;;0.65;0.30;;;;;;;;;;5031839;28;20446;-74
2022/08/24 13:12:21;;;;;;;1.15;0.45;;;;;;;;;;5026983;28;20029;-73
2022/08/24 13:14:49;;;;;;;1.13;0.40;;;;;;;;;;5017691;28;20034;-73
2022/08/24 13:17:17;;;;;;;2.45;0.55;;;;;;;;;;5031452;28;20116;-72
2022/08/24 13:19:45;;;;;;;1.20;0.40;;;;;;;;;;5038802;28;20108;-72
2022/08/24 13:22:11;;;;;;;1.70;0.68;;;;;;;;;;5033980;28;20034;-72
2022/08/24 13:24:42;;;;;;;1.67;0.70;;;;;;;;;;5029154;28;20392;-72
2022/08/24 13:27:11;;;;;;;1.80;0.40;;;;;;;;;;5031820;28;20040;-72
2022/08/24 13:29:38;;;;;;;2.78;0.40;;;;;;;;;;5034403;28;20025;-72
2022/08/24 13:32:05;;;;;;;2.30;0.47;;;;;;;;;;5033535;28;20041;-72
2022/08/24 13:34:45;;;;;;;1.10;0.40;;;;;;;;;;5033467;28;20045;-72
2022/08/24 13:37:16;;;;;;;1.38;0.52;;;;;;;;;;5033934;28;20049;-72
2022/08/24 13:39:57;;;;;;;4.10;0.50;;;;;;;;;;5032289;28;20042;-73
2022/08/24 13:42:49;;;;;;;1.13;0.50;;;;;;;;;;5033444;28;20597;-72
2022/08/24 13:45:15;;;;;;;1.30;0.50;;;;;;;;;;4999443;28;20038;-74
2022/08/24 13:47:47;;;;;;;1.23;0.60;;;;;;;;;;5018225;28;20038;-73
2022/08/24 13:50:28;;;;;;;2.25;0.50;;;;;;;;;;5002701;28;20026;-72
2022/08/24 13:53:13;;;;;;;0.98;0.35;;;;;;;;;;5016374;28;20042;-72
2022/08/24 13:55:42;;;;;;;0.90;0.30;;;;;;;;;;5023142;28;20037;-72
2022/08/24 13:58:15;;;;;;;0.88;0.38;;;;;;;;;;5030922;28;20036;-74
2022/08/24 14:00:47;;;;;;;2.30;0.20;;;;;;;;;;5030121;28;20037;-73
2022/08/24 14:03:13;;;;;;;0.95;0.40;;;;;;;;;;5041667;28;20087;-73
2022/08/24 14:05:42;;;;;;;0.93;0.40;;;;;;;;;;5022688;28;20053;-73
2022/08/24 14:08:26;;;;;;;1.13;0.30;;;;;;;;;;5030450;28;20038;-72
2022/08/24 14:11:04;;;;;;;1.00;0.40;;;;;;;;;;5032638;28;20564;-73
2022/08/24 14:13:36;;;;;;;2.80;0.40;;;;;;;;;;5025236;28;20485;-72
2022/08/24 14:19:11;;;;;;;4.40;0.60;;;;;;;;;;5022558;28;20059;-73
2022/08/24 14:21:44;;;;;;;4.82;0.40;;;;;;;;;;5024993;28;20022;-72
2022/08/24 14:24:21;;;;;;;1.33;0.30;;;;;;;;;;5023304;28;20080;-73
2022/08/24 14:26:47;;;;;;;0.57;0.30;;;;;;;;;;5020256;28;20101;-73
2022/08/24 14:29:16;;;;;;;0.85;0.43;;;;;;;;;;5013406;28;20034;-73
2022/08/24 14:31:55;;;;;;;1.45;0.60;;;;;;;;;;5031035;28;20030;-72
2022/08/24 14:34:27;;;;;;;0.50;0.40;;;;;;;;;;5029386;28;20073;-72
2022/08/24 14:36:53;;;;;;;2.20;0.40;;;;;;;;;;5031837;28;20120;-73
2022/08/24 14:39:45;;;;;;;2.70;0.30;;;;;;;;;;5022084;28;20026;-72
2022/08/24 14:42:15;;;;;;;0.80;0.40;;;;;;;;;;5011287;28;20038;-73
2022/08/24 14:44:48;;;;;;;1.50;0.50;;;;;;;;;;5037374;28;20048;-73
2022/08/24 14:47:20;;;;;;;2.92;0.40;;;;;;;;;;5027606;28;20026;-73
2022/08/24 14:50:01;;;;;;;0.82;0.47;;;;;;;;;;5033097;28;20087;-72